Izumo Princess — SXMB — position and weather

sailwx.info

Track history (hours):
 
Tides and Currents Weather Stations Pressure Air Temp Water Temp Dewpoint Dewpoint Depression Visibility Wind Speed Wind Dir Waves Ship Positions

Izumo Princess

Last reported at 2015-Aug-29 02:11 UTC. Time now 2015-Aug-29 12:43 UTC.
Position N 41°57' E 007°01'.

Length 229 m; draft 8 m.

Type: Ship (hazmat cat C). MMSI: 240611000.

Date/timePositionNaut miles runAvg speedWind from/ knotsBaromVisibWave heightAir tempDewpointWater temp
2015-Aug-29 02:11N 41°57' E 007°01'712.1
2015-Aug-29 01:34N 42°03' E 007°07'1212.2
2015-Aug-29 00:33N 42°13' E 007°17'2412.2
2015-Aug-28 22:34N 42°32' E 007°38'1211.7
2015-Aug-28 21:31N 42°42' E 007°48'1111.8
2015-Aug-28 20:34N 42°50' E 007°59'1211.9
2015-Aug-28 19:34N 42°59' E 008°09'1211.7
2015-Aug-28 18:32N 43°08' E 008°19'1211.9
2015-Aug-28 17:34N 43°17' E 008°29'1211.6
2015-Aug-28 16:34N 43°27' E 008°38'1211.6
2015-Aug-28 15:33N 43°38' E 008°39'1211.8
2015-Aug-28 14:34N 43°50' E 008°40'1211.7
2015-Aug-28 13:34N 44°02' E 008°41'1110.7
2015-Aug-28 12:33N 44°12' E 008°36'7 7.2
2015-Aug-28 11:33N 44°16' E 008°28'0 0.4
2015-Aug-28 10:33N 44°17' E 008°28'0 0.0
2015-Aug-28 09:33N 44°17' E 008°28'0 0.0
2015-Aug-28 08:33N 44°17' E 008°28'0 0.0
2015-Aug-28 07:33N 44°17' E 008°28'0 0.0
2015-Aug-28 06:33N 44°17' E 008°28'0 0.0
2015-Aug-28 05:33N 44°17' E 008°28'0 0.0
2015-Aug-28 04:33N 44°17' E 008°28'0 0.0
2015-Aug-28 03:33N 44°17' E 008°28'0 0.0
2015-Aug-28 02:33N 44°17' E 008°28'0 0.0
2015-Aug-28 01:27N 44°17' E 008°28'0 0.0
2015-Aug-28 00:33N 44°17' E 008°28'0 0.0
2015-Aug-27 23:27N 44°17' E 008°28'0 0.0
2015-Aug-27 22:33N 44°17' E 008°28'0 0.0
2015-Aug-27 21:27N 44°17' E 008°28'0 0.0
2015-Aug-27 20:33N 44°17' E 008°28'0 0.0
2015-Aug-27 19:33N 44°17' E 008°28'0 0.0
2015-Aug-27 18:33N 44°17' E 008°28'0 0.0
2015-Aug-27 17:33N 44°17' E 008°28'0 0.0
2015-Aug-27 16:33N 44°17' E 008°28'0 0.0
2015-Aug-27 15:33N 44°17' E 008°28'0 0.0
2015-Aug-27 14:33N 44°17' E 008°28'0 0.0
2015-Aug-27 13:33N 44°17' E 008°28'0 0.0
2015-Aug-27 12:30N 44°17' E 008°28'0 0.0
2015-Aug-27 11:33N 44°17' E 008°28'0 0.0
2015-Aug-27 10:30N 44°17' E 008°28'0 0.0
2015-Aug-27 09:33N 44°17' E 008°28'0 0.0
2015-Aug-27 08:33N 44°17' E 008°28'0 0.0
2015-Aug-27 07:34N 44°17' E 008°28'1 0.8
2015-Aug-27 06:33N 44°16' E 008°28'1 1.3
2015-Aug-27 05:33N 44°17' E 008°29'0 0.2
2015-Aug-27 04:28N 44°16' E 008°29'0 0.0
2015-Aug-27 03:31N 44°16' E 008°29'0 0.0
2015-Aug-27 02:31N 44°16' E 008°29'0 0.0
2015-Aug-27 01:31N 44°16' E 008°29'0 0.0
2015-Aug-27 00:31N 44°16' E 008°29'0 0.0
2015-Aug-26 23:31N 44°16' E 008°29'0 0.0
2015-Aug-26 22:31N 44°16' E 008°29'0 0.0
2015-Aug-26 21:16N 44°16' E 008°29'0 0.0
2015-Aug-26 20:28N 44°16' E 008°29'0 0.0
2015-Aug-26 19:25N 44°16' E 008°29'0 0.0
2015-Aug-26 18:31N 44°16' E 008°29'0 0.1
2015-Aug-26 17:28N 44°16' E 008°29'2 2.2
2015-Aug-26 16:33N 44°16' E 008°32'10 9.9
2015-Aug-26 15:34N 44°08' E 008°41'1212.2
2015-Aug-26 14:33N 43°56' E 008°40'1312.1
2015-Aug-26 13:31N 43°43' E 008°40'1212.3
2015-Aug-26 12:34N 43°32' E 008°39'1311.9
2015-Aug-26 11:26N 43°19' E 008°32'4112.3
2015-Aug-26 08:07N 42°48' E 007°57'813.2
2015-Aug-26 07:30N 42°41' E 007°50'5512.6
2015-Aug-26 03:11N 41°59' E 007°03'22412.5
2015-Aug-25 09:12N 39°02' E 004°02'912.3
2015-Aug-25 08:30N 38°56' E 003°54'1212.3
2015-Aug-25 07:32N 38°48' E 003°43'1212.6
2015-Aug-25 06:33N 38°40' E 003°31'1312.6
2015-Aug-25 05:31N 38°31' E 003°19'5012.6
2015-Aug-25 01:33N 37°58' E 002°32'1312.5
2015-Aug-25 00:31N 37°49' E 002°20'2411.7
2015-Aug-24 22:29N 37°33' E 001°57'1111.7
2015-Aug-24 21:33N 37°26' E 001°47'1212.0
2015-Aug-24 20:33N 37°18' E 001°36'1312.7
2015-Aug-24 19:33N 37°09' E 001°24'1312.7
2015-Aug-24 18:33N 37°01' E 001°12'1312.9
2015-Aug-24 17:33N 36°53' E 000°59'1312.8
2015-Aug-24 16:32N 36°46' E 000°46'1412.8
2015-Aug-24 15:28N 36°38' E 000°31'62 1.4
2015-Aug-22 18:16N 35°49' W 000°15'2 2.2
2015-Aug-22 17:30N 35°51' W 000°14'3 2.7
2015-Aug-22 16:26N 35°54' W 000°14'4511.4
2015-Aug-22 12:28N 36°27' E 000°24'1111.9
2015-Aug-22 11:32N 36°31' E 000°37'1212.0
2015-Aug-22 10:33N 36°35' E 000°51'1212.0
2015-Aug-22 09:32N 36°40' E 001°05'3912.9
2015-Aug-22 06:33N 36°53' E 001°50'1513.3
2015-Aug-22 05:27N 36°58' E 002°07'1213.1
2015-Aug-22 04:33N 37°03' E 002°21'1312.8
2015-Aug-22 03:33N 37°07' E 002°36'1312.8
2015-Aug-22 02:33N 37°12' E 002°51'1312.8
2015-Aug-22 01:32N 37°16' E 003°06'1412.8
2015-Aug-22 00:29N 37°19' E 003°23'1212.9
2015-Aug-21 23:31N 37°20' E 003°39'1313.0
2015-Aug-21 22:33N 37°21' E 003°54'1312.8
2015-Aug-21 21:33N 37°22' E 004°10'1312.7
2015-Aug-21 20:33N 37°24' E 004°26'6512.9
2015-Aug-21 15:29N 37°30' E 005°48'30013.0
2015-Aug-20 16:27N 37°06' E 012°03'1112.1
2015-Aug-20 15:33N 36°59' E 012°14'1212.3
2015-Aug-20 14:33N 36°54' E 012°28'1212.3
2015-Aug-20 13:33N 36°48' E 012°42'1212.2
2015-Aug-20 12:33N 36°43' E 012°56'1212.4
2015-Aug-20 11:33N 36°37' E 013°09'1212.5
2015-Aug-20 10:33N 36°32' E 013°23'1312.6
2015-Aug-20 09:33N 36°26' E 013°37'1312.7
2015-Aug-20 08:32N 36°20' E 013°51'1312.9
2015-Aug-20 07:33N 36°14' E 014°05'1313.1
2015-Aug-20 06:33N 36°09' E 014°20'1313.1
2015-Aug-20 05:33N 36°01' E 014°34'1212.3
2015-Aug-20 04:33N 35°55' E 014°46'1 1.1
2015-Aug-20 03:32N 35°53' E 014°47'0 0.0
2015-Aug-20 02:32N 35°53' E 014°47'0 0.0
2015-Aug-20 01:33N 35°53' E 014°47'0 0.0
2015-Aug-20 00:32N 35°53' E 014°47'0 0.0
2015-Aug-19 23:33N 35°53' E 014°47'0 0.1
2015-Aug-19 22:32N 35°53' E 014°46'0 0.1
2015-Aug-19 21:32N 35°53' E 014°46'0 0.0
2015-Aug-19 20:32N 35°53' E 014°46'0 0.0
2015-Aug-19 19:32N 35°53' E 014°46'0 0.0
2015-Aug-19 18:32N 35°53' E 014°46'0 0.0
2015-Aug-19 17:32N 35°53' E 014°47'0 0.2
2015-Aug-19 16:33N 35°54' E 014°46'6 6.0
2015-Aug-19 15:33N 35°59' E 014°49'1212.1
2015-Aug-19 14:33N 36°10' E 014°57'1212.1
2015-Aug-19 13:33N 36°20' E 015°04'1212.0
2015-Aug-19 12:33N 36°31' E 015°12'1211.7
2015-Aug-19 11:33N 36°41' E 015°18'1211.9
2015-Aug-19 10:33N 36°52' E 015°23'1110.9
2015-Aug-19 09:33N 37°03' E 015°25'  
Track history (hours):
 
Tides and Currents Weather Stations Pressure Air Temp Water Temp Dewpoint Dewpoint Depression Visibility Wind Speed Wind Dir Waves Ship Positions

Izumo Princess

Last reported at 2015-Aug-29 02:11 UTC. Time now 2015-Aug-29 12:43 UTC.
Position N 41°57' E 007°01'.

Length 229 m; draft 8 m.

Type: Ship (hazmat cat C). MMSI: 240611000.

Date/timePositionNaut miles runAvg speedWind from/ knotsBaromVisibWave heightAir tempDewpointWater temp
2015-Aug-29 02:11N 41°57' E 007°01'712.1
2015-Aug-29 01:34N 42°03' E 007°07'1212.2
2015-Aug-29 00:33N 42°13' E 007°17'2412.2
2015-Aug-28 22:34N 42°32' E 007°38'1211.7
2015-Aug-28 21:31N 42°42' E 007°48'1111.8
2015-Aug-28 20:34N 42°50' E 007°59'1211.9
2015-Aug-28 19:34N 42°59' E 008°09'1211.7
2015-Aug-28 18:32N 43°08' E 008°19'1211.9
2015-Aug-28 17:34N 43°17' E 008°29'1211.6
2015-Aug-28 16:34N 43°27' E 008°38'1211.6
2015-Aug-28 15:33N 43°38' E 008°39'1211.8
2015-Aug-28 14:34N 43°50' E 008°40'1211.7
2015-Aug-28 13:34N 44°02' E 008°41'1110.7
2015-Aug-28 12:33N 44°12' E 008°36'7 7.2
2015-Aug-28 11:33N 44°16' E 008°28'0 0.4
2015-Aug-28 10:33N 44°17' E 008°28'0 0.0
2015-Aug-28 09:33N 44°17' E 008°28'0 0.0
2015-Aug-28 08:33N 44°17' E 008°28'0 0.0
2015-Aug-28 07:33N 44°17' E 008°28'0 0.0
2015-Aug-28 06:33N 44°17' E 008°28'0 0.0
2015-Aug-28 05:33N 44°17' E 008°28'0 0.0
2015-Aug-28 04:33N 44°17' E 008°28'0 0.0
2015-Aug-28 03:33N 44°17' E 008°28'0 0.0
2015-Aug-28 02:33N 44°17' E 008°28'0 0.0
2015-Aug-28 01:27N 44°17' E 008°28'0 0.0
2015-Aug-28 00:33N 44°17' E 008°28'0 0.0
2015-Aug-27 23:27N 44°17' E 008°28'0 0.0
2015-Aug-27 22:33N 44°17' E 008°28'0 0.0
2015-Aug-27 21:27N 44°17' E 008°28'0 0.0
2015-Aug-27 20:33N 44°17' E 008°28'0 0.0
2015-Aug-27 19:33N 44°17' E 008°28'0 0.0
2015-Aug-27 18:33N 44°17' E 008°28'0 0.0
2015-Aug-27 17:33N 44°17' E 008°28'0 0.0
2015-Aug-27 16:33N 44°17' E 008°28'0 0.0
2015-Aug-27 15:33N 44°17' E 008°28'0 0.0
2015-Aug-27 14:33N 44°17' E 008°28'0 0.0
2015-Aug-27 13:33N 44°17' E 008°28'0 0.0
2015-Aug-27 12:30N 44°17' E 008°28'0 0.0
2015-Aug-27 11:33N 44°17' E 008°28'0 0.0
2015-Aug-27 10:30N 44°17' E 008°28'0 0.0
2015-Aug-27 09:33N 44°17' E 008°28'0 0.0
2015-Aug-27 08:33N 44°17' E 008°28'0 0.0
2015-Aug-27 07:34N 44°17' E 008°28'1 0.8
2015-Aug-27 06:33N 44°16' E 008°28'1 1.3
2015-Aug-27 05:33N 44°17' E 008°29'0 0.2
2015-Aug-27 04:28N 44°16' E 008°29'0 0.0
2015-Aug-27 03:31N 44°16' E 008°29'0 0.0
2015-Aug-27 02:31N 44°16' E 008°29'0 0.0
2015-Aug-27 01:31N 44°16' E 008°29'0 0.0
2015-Aug-27 00:31N 44°16' E 008°29'0 0.0
2015-Aug-26 23:31N 44°16' E 008°29'0 0.0
2015-Aug-26 22:31N 44°16' E 008°29'0 0.0
2015-Aug-26 21:16N 44°16' E 008°29'0 0.0
2015-Aug-26 20:28N 44°16' E 008°29'0 0.0
2015-Aug-26 19:25N 44°16' E 008°29'0 0.0
2015-Aug-26 18:31N 44°16' E 008°29'0 0.1
2015-Aug-26 17:28N 44°16' E 008°29'2 2.2
2015-Aug-26 16:33N 44°16' E 008°32'10 9.9
2015-Aug-26 15:34N 44°08' E 008°41'1212.2
2015-Aug-26 14:33N 43°56' E 008°40'1312.1
2015-Aug-26 13:31N 43°43' E 008°40'1212.3
2015-Aug-26 12:34N 43°32' E 008°39'1311.9
2015-Aug-26 11:26N 43°19' E 008°32'4112.3
2015-Aug-26 08:07N 42°48' E 007°57'813.2
2015-Aug-26 07:30N 42°41' E 007°50'5512.6
2015-Aug-26 03:11N 41°59' E 007°03'22412.5
2015-Aug-25 09:12N 39°02' E 004°02'912.3
2015-Aug-25 08:30N 38°56' E 003°54'1212.3
2015-Aug-25 07:32N 38°48' E 003°43'1212.6
2015-Aug-25 06:33N 38°40' E 003°31'1312.6
2015-Aug-25 05:31N 38°31' E 003°19'5012.6
2015-Aug-25 01:33N 37°58' E 002°32'1312.5
2015-Aug-25 00:31N 37°49' E 002°20'2411.7
2015-Aug-24 22:29N 37°33' E 001°57'1111.7
2015-Aug-24 21:33N 37°26' E 001°47'1212.0
2015-Aug-24 20:33N 37°18' E 001°36'1312.7
2015-Aug-24 19:33N 37°09' E 001°24'1312.7
2015-Aug-24 18:33N 37°01' E 001°12'1312.9
2015-Aug-24 17:33N 36°53' E 000°59'1312.8
2015-Aug-24 16:32N 36°46' E 000°46'1412.8
2015-Aug-24 15:28N 36°38' E 000°31'62 1.4
2015-Aug-22 18:16N 35°49' W 000°15'2 2.2
2015-Aug-22 17:30N 35°51' W 000°14'3 2.7
2015-Aug-22 16:26N 35°54' W 000°14'4511.4
2015-Aug-22 12:28N 36°27' E 000°24'1111.9
2015-Aug-22 11:32N 36°31' E 000°37'1212.0
2015-Aug-22 10:33N 36°35' E 000°51'1212.0
2015-Aug-22 09:32N 36°40' E 001°05'3912.9
2015-Aug-22 06:33N 36°53' E 001°50'1513.3
2015-Aug-22 05:27N 36°58' E 002°07'1213.1
2015-Aug-22 04:33N 37°03' E 002°21'1312.8
2015-Aug-22 03:33N 37°07' E 002°36'1312.8
2015-Aug-22 02:33N 37°12' E 002°51'1312.8
2015-Aug-22 01:32N 37°16' E 003°06'1412.8
2015-Aug-22 00:29N 37°19' E 003°23'1212.9
2015-Aug-21 23:31N 37°20' E 003°39'1313.0
2015-Aug-21 22:33N 37°21' E 003°54'1312.8
2015-Aug-21 21:33N 37°22' E 004°10'1312.7
2015-Aug-21 20:33N 37°24' E 004°26'6512.9
2015-Aug-21 15:29N 37°30' E 005°48'30013.0
2015-Aug-20 16:27N 37°06' E 012°03'1112.1
2015-Aug-20 15:33N 36°59' E 012°14'1212.3
2015-Aug-20 14:33N 36°54' E 012°28'1212.3
2015-Aug-20 13:33N 36°48' E 012°42'1212.2
2015-Aug-20 12:33N 36°43' E 012°56'1212.4
2015-Aug-20 11:33N 36°37' E 013°09'1212.5
2015-Aug-20 10:33N 36°32' E 013°23'1312.6
2015-Aug-20 09:33N 36°26' E 013°37'1312.7
2015-Aug-20 08:32N 36°20' E 013°51'1312.9
2015-Aug-20 07:33N 36°14' E 014°05'1313.1
2015-Aug-20 06:33N 36°09' E 014°20'1313.1
2015-Aug-20 05:33N 36°01' E 014°34'1212.3
2015-Aug-20 04:33N 35°55' E 014°46'1 1.1
2015-Aug-20 03:32N 35°53' E 014°47'0 0.0
2015-Aug-20 02:32N 35°53' E 014°47'0 0.0
2015-Aug-20 01:33N 35°53' E 014°47'0 0.0
2015-Aug-20 00:32N 35°53' E 014°47'0 0.0
2015-Aug-19 23:33N 35°53' E 014°47'0 0.1
2015-Aug-19 22:32N 35°53' E 014°46'0 0.1
2015-Aug-19 21:32N 35°53' E 014°46'0 0.0
2015-Aug-19 20:32N 35°53' E 014°46'0 0.0
2015-Aug-19 19:32N 35°53' E 014°46'0 0.0
2015-Aug-19 18:32N 35°53' E 014°46'0 0.0
2015-Aug-19 17:32N 35°53' E 014°47'0 0.2
2015-Aug-19 16:33N 35°54' E 014°46'6 6.0
2015-Aug-19 15:33N 35°59' E 014°49'1212.1
2015-Aug-19 14:33N 36°10' E 014°57'1212.1
2015-Aug-19 13:33N 36°20' E 015°04'1212.0
2015-Aug-19 12:33N 36°31' E 015°12'1211.7
2015-Aug-19 11:33N 36°41' E 015°18'1211.9
2015-Aug-19 10:33N 36°52' E 015°23'1110.9
2015-Aug-19 09:33N 37°03' E 015°25'  

Dump ship's entire track history